Archival Weather

Aeroparque Jorge Newbery

Buenos Aires, Argentina (SABE)

Report from: Sunday, March 19, 2023 12:00 PM -03
Current time: Sunday, July 14, 2024 8:03 AM -03

Current weather – Weather history – Daily summaries
Weather forecast

Present weatherRETSRA
Temperature24.0°C (75.2°F)
Dew point21.0°C (69.8°F)
Winds 10 kts (5.1 m/s, 11.5 mph) Southeast (130°)
Visibility6.2 mi. (10 km)
Clouds Few clouds 2,200 ft. (671 m)
Scattered clouds 10,000 ft. (3,048 m)
Altimeter29.88 in.Hg (1012 mB)
Relative humidity83 %
Density altitude1,422 ft. (433 m)
Remarks No significant changes expected in the next two hours
Flight conditions Visual Meteorological Conditions
Raw dataSABE 191500Z 13010KT 9999 FEW022 SCT100 24/21 Q1012 RETSRA NOSIG RMK PP999
An error has occurred. This application may no longer respond until reloaded. Reload 🗙